sensor_id;sensor_type;location;lat;lon;timestamp;pressure;altitude;pressure_sealevel;temperature
9985;BMP180;16737;50.932;6.780;2023-02-01T00:00:36;100659.00;;;11.30
9985;BMP180;16737;50.932;6.780;2023-02-01T00:03:03;100665.00;;;11.30
9985;BMP180;16737;50.932;6.780;2023-02-01T00:05:31;100676.00;;;11.30
9985;BMP180;16737;50.932;6.780;2023-02-01T00:07:58;100664.00;;;11.20
9985;BMP180;16737;50.932;6.780;2023-02-01T00:10:26;100671.00;;;11.20
9985;BMP180;16737;50.932;6.780;2023-02-01T00:12:55;100678.00;;;11.20
9985;BMP180;16737;50.932;6.780;2023-02-01T00:15:22;100668.00;;;11.10
9985;BMP180;16737;50.932;6.780;2023-02-01T00:17:54;100669.00;;;11.10
9985;BMP180;16737;50.932;6.780;2023-02-01T00:20:21;100659.00;;;11.10
9985;BMP180;16737;50.932;6.780;2023-02-01T00:22:48;100658.00;;;11.00
9985;BMP180;16737;50.932;6.780;2023-02-01T00:25:17;100663.00;;;11.00
9985;BMP180;16737;50.932;6.780;2023-02-01T00:27:49;100669.00;;;10.90
9985;BMP180;16737;50.932;6.780;2023-02-01T00:30:18;100644.00;;;10.80
9985;BMP180;16737;50.932;6.780;2023-02-01T00:32:44;100658.00;;;10.80
9985;BMP180;16737;50.932;6.780;2023-02-01T00:35:12;100661.00;;;10.80
9985;BMP180;16737;50.932;6.780;2023-02-01T00:37:38;100659.00;;;10.70
9985;BMP180;16737;50.932;6.780;2023-02-01T00:40:07;100655.00;;;10.70
9985;BMP180;16737;50.932;6.780;2023-02-01T00:42:34;100648.00;;;10.70
9985;BMP180;16737;50.932;6.780;2023-02-01T00:45:04;100650.00;;;10.60
9985;BMP180;16737;50.932;6.780;2023-02-01T00:47:31;100646.00;;;10.60
9985;BMP180;16737;50.932;6.780;2023-02-01T00:49:58;100657.00;;;10.60
9985;BMP180;16737;50.932;6.780;2023-02-01T00:52:25;100648.00;;;10.60
9985;BMP180;16737;50.932;6.780;2023-02-01T00:54:52;100647.00;;;10.60
9985;BMP180;16737;50.932;6.780;2023-02-01T00:57:19;100654.00;;;10.60
9985;BMP180;16737;50.932;6.780;2023-02-01T00:59:46;100666.00;;;10.60
9985;BMP180;16737;50.932;6.780;2023-02-01T01:02:15;100646.00;;;10.60
9985;BMP180;16737;50.932;6.780;2023-02-01T01:04:42;100636.00;;;10.60
9985;BMP180;16737;50.932;6.780;2023-02-01T01:07:09;100629.00;;;10.60
9985;BMP180;16737;50.932;6.780;2023-02-01T01:09:36;100615.00;;;10.60
9985;BMP180;16737;50.932;6.780;2023-02-01T01:12:04;100600.00;;;10.60
9985;BMP180;16737;50.932;6.780;2023-02-01T01:14:32;100605.00;;;10.50
9985;BMP180;16737;50.932;6.780;2023-02-01T01:16:59;100611.00;;;10.50
9985;BMP180;16737;50.932;6.780;2023-02-01T01:19:28;100618.00;;;10.50
9985;BMP180;16737;50.932;6.780;2023-02-01T01:21:55;100624.00;;;10.50
9985;BMP180;16737;50.932;6.780;2023-02-01T01:24:22;100644.00;;;10.50
9985;BMP180;16737;50.932;6.780;2023-02-01T01:26:49;100637.00;;;10.50
9985;BMP180;16737;50.932;6.780;2023-02-01T01:29:15;100641.00;;;10.50
9985;BMP180;16737;50.932;6.780;2023-02-01T01:31:43;100644.00;;;10.50
9985;BMP180;16737;50.932;6.780;2023-02-01T01:34:11;100655.00;;;10.50
9985;BMP180;16737;50.932;6.780;2023-02-01T01:36:39;100652.00;;;10.50
9985;BMP180;16737;50.932;6.780;2023-02-01T01:39:06;100646.00;;;10.50
9985;BMP180;16737;50.932;6.780;2023-02-01T01:41:33;100651.00;;;10.50
9985;BMP180;16737;50.932;6.780;2023-02-01T01:44:03;100651.00;;;10.50
9985;BMP180;16737;50.932;6.780;2023-02-01T01:46:33;100641.00;;;10.50
9985;BMP180;16737;50.932;6.780;2023-02-01T01:49:05;100639.00;;;10.50
9985;BMP180;16737;50.932;6.780;2023-02-01T01:51:41;100642.00;;;10.50
9985;BMP180;16737;50.932;6.780;2023-02-01T01:54:16;100644.00;;;10.40
9985;BMP180;16737;50.932;6.780;2023-02-01T01:56:50;100639.00;;;10.40
9985;BMP180;16737;50.932;6.780;2023-02-01T01:59:19;100629.00;;;10.40
9985;BMP180;16737;50.932;6.780;2023-02-01T02:01:47;100628.00;;;10.40
9985;BMP180;16737;50.932;6.780;2023-02-01T02:04:14;100624.00;;;10.40
9985;BMP180;16737;50.932;6.780;2023-02-01T02:06:50;100618.00;;;10.40
9985;BMP180;16737;50.932;6.780;2023-02-01T02:09:18;100632.00;;;10.40
9985;BMP180;16737;50.932;6.780;2023-02-01T02:11:47;100630.00;;;10.40
9985;BMP180;16737;50.932;6.780;2023-02-01T02:14:19;100616.00;;;10.30
9985;BMP180;16737;50.932;6.780;2023-02-01T02:17:07;100615.00;;;10.30
9985;BMP180;16737;50.932;6.780;2023-02-01T02:20:22;100615.00;;;10.30
9985;BMP180;16737;50.932;6.780;2023-02-01T02:23:39;100604.00;;;10.30
9985;BMP180;16737;50.932;6.780;2023-02-01T02:26:26;100605.00;;;10.30
9985;BMP180;16737;50.932;6.780;2023-02-01T02:29:39;100599.00;;;10.30
9985;BMP180;16737;50.932;6.780;2023-02-01T02:32:45;100606.00;;;10.30
9985;BMP180;16737;50.932;6.780;2023-02-01T02:35:26;100596.00;;;10.30
9985;BMP180;16737;50.932;6.780;2023-02-01T02:38:12;100616.00;;;10.30
9985;BMP180;16737;50.932;6.780;2023-02-01T02:40:48;100614.00;;;10.30
9985;BMP180;16737;50.932;6.780;2023-02-01T02:43:22;100606.00;;;10.30
9985;BMP180;16737;50.932;6.780;2023-02-01T02:46:16;100593.00;;;10.30
9985;BMP180;16737;50.932;6.780;2023-02-01T02:49:19;100605.00;;;10.30
9985;BMP180;16737;50.932;6.780;2023-02-01T02:51:54;100611.00;;;10.40
9985;BMP180;16737;50.932;6.780;2023-02-01T02:54:43;100593.00;;;10.40
9985;BMP180;16737;50.932;6.780;2023-02-01T02:57:18;100588.00;;;10.40
9985;BMP180;16737;50.932;6.780;2023-02-01T03:00:09;100575.00;;;10.40
9985;BMP180;16737;50.932;6.780;2023-02-01T03:02:54;100583.00;;;10.40
9985;BMP180;16737;50.932;6.780;2023-02-01T03:05:43;100576.00;;;10.40
9985;BMP180;16737;50.932;6.780;2023-02-01T03:08:14;100596.00;;;10.40
9985;BMP180;16737;50.932;6.780;2023-02-01T03:10:53;100581.00;;;10.40
9985;BMP180;16737;50.932;6.780;2023-02-01T03:13:31;100582.00;;;10.40
9985;BMP180;16737;50.932;6.780;2023-02-01T03:16:06;100573.00;;;10.40
9985;BMP180;16737;50.932;6.780;2023-02-01T03:18:42;100581.00;;;10.50
9985;BMP180;16737;50.932;6.780;2023-02-01T03:21:19;100576.00;;;10.50
9985;BMP180;16737;50.932;6.780;2023-02-01T03:23:51;100583.00;;;10.50
9985;BMP180;16737;50.932;6.780;2023-02-01T03:26:22;100575.00;;;10.50
9985;BMP180;16737;50.932;6.780;2023-02-01T03:28:57;100589.00;;;10.50
9985;BMP180;16737;50.932;6.780;2023-02-01T03:31:28;100596.00;;;10.50
9985;BMP180;16737;50.932;6.780;2023-02-01T03:33:56;100587.00;;;10.50
9985;BMP180;16737;50.932;6.780;2023-02-01T03:36:30;100579.00;;;10.50
9985;BMP180;16737;50.932;6.780;2023-02-01T03:39:05;100576.00;;;10.50
9985;BMP180;16737;50.932;6.780;2023-02-01T03:41:38;100586.00;;;10.40
9985;BMP180;16737;50.932;6.780;2023-02-01T03:44:17;100566.00;;;10.50
9985;BMP180;16737;50.932;6.780;2023-02-01T03:46:51;100591.00;;;10.50
9985;BMP180;16737;50.932;6.780;2023-02-01T03:49:26;100570.00;;;10.50
9985;BMP180;16737;50.932;6.780;2023-02-01T03:51:57;100564.00;;;10.50
9985;BMP180;16737;50.932;6.780;2023-02-01T03:54:28;100560.00;;;10.50
9985;BMP180;16737;50.932;6.780;2023-02-01T03:56:59;100563.00;;;10.50
9985;BMP180;16737;50.932;6.780;2023-02-01T03:59:28;100571.00;;;10.40
9985;BMP180;16737;50.932;6.780;2023-02-01T04:01:55;100569.00;;;10.40
9985;BMP180;16737;50.932;6.780;2023-02-01T04:04:22;100578.00;;;10.40
9985;BMP180;16737;50.932;6.780;2023-02-01T04:06:50;100537.00;;;10.40
9985;BMP180;16737;50.932;6.780;2023-02-01T04:09:18;100566.00;;;10.40
9985;BMP180;16737;50.932;6.780;2023-02-01T04:11:46;100569.00;;;10.40
9985;BMP180;16737;50.932;6.780;2023-02-01T04:14:13;100563.00;;;10.40
9985;BMP180;16737;50.932;6.780;2023-02-01T04:16:40;100570.00;;;10.40
9985;BMP180;16737;50.932;6.780;2023-02-01T04:19:09;100577.00;;;10.40
9985;BMP180;16737;50.932;6.780;2023-02-01T04:21:36;100573.00;;;10.40
9985;BMP180;16737;50.932;6.780;2023-02-01T04:24:04;100573.00;;;10.40
9985;BMP180;16737;50.932;6.780;2023-02-01T04:26:32;100579.00;;;10.40
9985;BMP180;16737;50.932;6.780;2023-02-01T04:29:00;100573.00;;;10.40
9985;BMP180;16737;50.932;6.780;2023-02-01T04:31:27;100574.00;;;10.40
9985;BMP180;16737;50.932;6.780;2023-02-01T04:33:55;100565.00;;;10.40
9985;BMP180;16737;50.932;6.780;2023-02-01T04:36:23;100566.00;;;10.40
9985;BMP180;16737;50.932;6.780;2023-02-01T04:38:51;100560.00;;;10.40
9985;BMP180;16737;50.932;6.780;2023-02-01T04:41:18;100559.00;;;10.40
9985;BMP180;16737;50.932;6.780;2023-02-01T04:43:46;100539.00;;;10.40
9985;BMP180;16737;50.932;6.780;2023-02-01T04:46:15;100555.00;;;10.40
9985;BMP180;16737;50.932;6.780;2023-02-01T04:48:42;100554.00;;;10.40
9985;BMP180;16737;50.932;6.780;2023-02-01T04:51:11;100551.00;;;10.40
9985;BMP180;16737;50.932;6.780;2023-02-01T04:53:38;100543.00;;;10.30
9985;BMP180;16737;50.932;6.780;2023-02-01T04:56:06;100526.00;;;10.30
9985;BMP180;16737;50.932;6.780;2023-02-01T04:58:33;100530.00;;;10.30
9985;BMP180;16737;50.932;6.780;2023-02-01T05:01:03;100526.00;;;10.30
9985;BMP180;16737;50.932;6.780;2023-02-01T05:03:32;100513.00;;;10.20
9985;BMP180;16737;50.932;6.780;2023-02-01T05:05:59;100518.00;;;10.20
9985;BMP180;16737;50.932;6.780;2023-02-01T05:08:27;100517.00;;;10.10
9985;BMP180;16737;50.932;6.780;2023-02-01T05:10:54;100523.00;;;10.20
9985;BMP180;16737;50.932;6.780;2023-02-01T05:13:21;100527.00;;;10.10
9985;BMP180;16737;50.932;6.780;2023-02-01T05:16:17;100530.00;;;10.10
9985;BMP180;16737;50.932;6.780;2023-02-01T05:18:46;100524.00;;;10.10
9985;BMP180;16737;50.932;6.780;2023-02-01T05:21:13;100549.00;;;10.00
9985;BMP180;16737;50.932;6.780;2023-02-01T05:23:39;100545.00;;;10.10
9985;BMP180;16737;50.932;6.780;2023-02-01T05:26:20;100547.00;;;10.00
9985;BMP180;16737;50.932;6.780;2023-02-01T05:28:48;100546.00;;;10.00
9985;BMP180;16737;50.932;6.780;2023-02-01T05:31:16;100544.00;;;10.00
9985;BMP180;16737;50.932;6.780;2023-02-01T05:33:43;100547.00;;;9.90
9985;BMP180;16737;50.932;6.780;2023-02-01T05:36:11;100516.00;;;9.90
9985;BMP180;16737;50.932;6.780;2023-02-01T05:38:38;100539.00;;;9.90
9985;BMP180;16737;50.932;6.780;2023-02-01T05:41:05;100543.00;;;9.90
9985;BMP180;16737;50.932;6.780;2023-02-01T05:43:32;100546.00;;;9.90
9985;BMP180;16737;50.932;6.780;2023-02-01T05:45:59;100535.00;;;9.80
9985;BMP180;16737;50.932;6.780;2023-02-01T05:48:27;100521.00;;;9.80
9985;BMP180;16737;50.932;6.780;2023-02-01T05:50:54;100527.00;;;9.80
9985;BMP180;16737;50.932;6.780;2023-02-01T05:53:22;100533.00;;;9.80
9985;BMP180;16737;50.932;6.780;2023-02-01T05:55:49;100531.00;;;9.80
9985;BMP180;16737;50.932;6.780;2023-02-01T05:58:16;100518.00;;;9.80
9985;BMP180;16737;50.932;6.780;2023-02-01T06:00:43;100531.00;;;9.70
9985;BMP180;16737;50.932;6.780;2023-02-01T06:03:10;100533.00;;;9.70
9985;BMP180;16737;50.932;6.780;2023-02-01T06:05:37;100531.00;;;9.70
9985;BMP180;16737;50.932;6.780;2023-02-01T06:08:04;100526.00;;;9.70
9985;BMP180;16737;50.932;6.780;2023-02-01T06:10:34;100531.00;;;9.70
9985;BMP180;16737;50.932;6.780;2023-02-01T06:13:01;100539.00;;;9.70
9985;BMP180;16737;50.932;6.780;2023-02-01T06:15:29;100524.00;;;9.70
9985;BMP180;16737;50.932;6.780;2023-02-01T06:17:56;100527.00;;;9.70
9985;BMP180;16737;50.932;6.780;2023-02-01T06:20:24;100529.00;;;9.60
9985;BMP180;16737;50.932;6.780;2023-02-01T06:22:51;100515.00;;;9.60
9985;BMP180;16737;50.932;6.780;2023-02-01T06:25:19;100534.00;;;9.60
9985;BMP180;16737;50.932;6.780;2023-02-01T06:27:49;100518.00;;;9.60
9985;BMP180;16737;50.932;6.780;2023-02-01T06:30:17;100541.00;;;9.60
9985;BMP180;16737;50.932;6.780;2023-02-01T06:32:44;100549.00;;;9.50
9985;BMP180;16737;50.932;6.780;2023-02-01T06:35:11;100552.00;;;9.60
9985;BMP180;16737;50.932;6.780;2023-02-01T06:37:42;100542.00;;;9.50
9985;BMP180;16737;50.932;6.780;2023-02-01T06:40:10;100545.00;;;9.50
9985;BMP180;16737;50.932;6.780;2023-02-01T06:42:37;100560.00;;;9.50
9985;BMP180;16737;50.932;6.780;2023-02-01T06:45:07;100558.00;;;9.50
9985;BMP180;16737;50.932;6.780;2023-02-01T06:47:34;100559.00;;;9.50
9985;BMP180;16737;50.932;6.780;2023-02-01T06:50:01;100563.00;;;9.50
9985;BMP180;16737;50.932;6.780;2023-02-01T06:52:28;100572.00;;;9.50
9985;BMP180;16737;50.932;6.780;2023-02-01T06:54:55;100562.00;;;9.50
9985;BMP180;16737;50.932;6.780;2023-02-01T06:57:22;100562.00;;;9.50
9985;BMP180;16737;50.932;6.780;2023-02-01T06:59:50;100564.00;;;9.50
9985;BMP180;16737;50.932;6.780;2023-02-01T07:02:19;100562.00;;;9.50
9985;BMP180;16737;50.932;6.780;2023-02-01T07:04:47;100574.00;;;9.60
9985;BMP180;16737;50.932;6.780;2023-02-01T07:07:14;100566.00;;;9.60
9985;BMP180;16737;50.932;6.780;2023-02-01T07:09:41;100592.00;;;9.60
9985;BMP180;16737;50.932;6.780;2023-02-01T07:12:08;100572.00;;;9.60
9985;BMP180;16737;50.932;6.780;2023-02-01T07:14:35;100571.00;;;9.60
9985;BMP180;16737;50.932;6.780;2023-02-01T07:17:02;100569.00;;;9.60
9985;BMP180;16737;50.932;6.780;2023-02-01T07:19:31;100576.00;;;9.60
9985;BMP180;16737;50.932;6.780;2023-02-01T07:21:58;100577.00;;;9.60
9985;BMP180;16737;50.932;6.780;2023-02-01T07:24:25;100580.00;;;9.50
9985;BMP180;16737;50.932;6.780;2023-02-01T07:26:52;100583.00;;;9.60
9985;BMP180;16737;50.932;6.780;2023-02-01T07:29:19;100604.00;;;9.60
9985;BMP180;16737;50.932;6.780;2023-02-01T07:31:47;100610.00;;;9.60
9985;BMP180;16737;50.932;6.780;2023-02-01T07:34:14;100608.00;;;9.60
9985;BMP180;16737;50.932;6.780;2023-02-01T07:36:42;100615.00;;;9.60
9985;BMP180;16737;50.932;6.780;2023-02-01T07:39:09;100607.00;;;9.60
9985;BMP180;16737;50.932;6.780;2023-02-01T07:41:36;100611.00;;;9.60
9985;BMP180;16737;50.932;6.780;2023-02-01T07:44:03;100601.00;;;9.70
9985;BMP180;16737;50.932;6.780;2023-02-01T07:46:30;100602.00;;;9.70
9985;BMP180;16737;50.932;6.780;2023-02-01T07:48:57;100604.00;;;9.70
9985;BMP180;16737;50.932;6.780;2023-02-01T07:51:25;100599.00;;;9.70
9985;BMP180;16737;50.932;6.780;2023-02-01T07:53:54;100601.00;;;9.70
9985;BMP180;16737;50.932;6.780;2023-02-01T07:56:21;100609.00;;;9.70
9985;BMP180;16737;50.932;6.780;2023-02-01T07:58:50;100596.00;;;9.70
9985;BMP180;16737;50.932;6.780;2023-02-01T08:01:22;100605.00;;;9.60
9985;BMP180;16737;50.932;6.780;2023-02-01T08:03:52;100614.00;;;9.70
9985;BMP180;16737;50.932;6.780;2023-02-01T08:06:21;100615.00;;;9.60
9985;BMP180;16737;50.932;6.780;2023-02-01T08:08:49;100619.00;;;9.60
9985;BMP180;16737;50.932;6.780;2023-02-01T08:11:19;100621.00;;;9.60
9985;BMP180;16737;50.932;6.780;2023-02-01T08:13:47;100620.00;;;9.60
9985;BMP180;16737;50.932;6.780;2023-02-01T08:16:16;100615.00;;;9.70
9985;BMP180;16737;50.932;6.780;2023-02-01T08:18:45;100625.00;;;9.70
9985;BMP180;16737;50.932;6.780;2023-02-01T08:21:17;100610.00;;;9.70
9985;BMP180;16737;50.932;6.780;2023-02-01T08:23:44;100625.00;;;9.70
9985;BMP180;16737;50.932;6.780;2023-02-01T08:26:14;100628.00;;;9.70
9985;BMP180;16737;50.932;6.780;2023-02-01T08:28:45;100631.00;;;9.70
9985;BMP180;16737;50.932;6.780;2023-02-01T08:31:15;100635.00;;;9.60
9985;BMP180;16737;50.932;6.780;2023-02-01T08:33:48;100631.00;;;9.70
9985;BMP180;16737;50.932;6.780;2023-02-01T08:36:15;100649.00;;;9.70
9985;BMP180;16737;50.932;6.780;2023-02-01T08:38:43;100641.00;;;9.70
9985;BMP180;16737;50.932;6.780;2023-02-01T08:41:12;100621.00;;;9.70
9985;BMP180;16737;50.932;6.780;2023-02-01T08:43:41;100641.00;;;9.80
9985;BMP180;16737;50.932;6.780;2023-02-01T08:46:10;100653.00;;;9.80
9985;BMP180;16737;50.932;6.780;2023-02-01T08:48:38;100653.00;;;9.80
9985;BMP180;16737;50.932;6.780;2023-02-01T08:51:08;100654.00;;;9.80
9985;BMP180;16737;50.932;6.780;2023-02-01T08:53:35;100661.00;;;9.80
9985;BMP180;16737;50.932;6.780;2023-02-01T08:56:03;100663.00;;;9.90
9985;BMP180;16737;50.932;6.780;2023-02-01T08:58:30;100668.00;;;9.90
9985;BMP180;16737;50.932;6.780;2023-02-01T09:01:04;100674.00;;;9.90
9985;BMP180;16737;50.932;6.780;2023-02-01T09:03:31;100670.00;;;9.90
9985;BMP180;16737;50.932;6.780;2023-02-01T09:06:03;100666.00;;;9.90
9985;BMP180;16737;50.932;6.780;2023-02-01T09:08:31;100661.00;;;10.00
9985;BMP180;16737;50.932;6.780;2023-02-01T09:10:59;100663.00;;;10.10
9985;BMP180;16737;50.932;6.780;2023-02-01T09:13:27;100647.00;;;10.10
9985;BMP180;16737;50.932;6.780;2023-02-01T09:15:54;100652.00;;;10.20
9985;BMP180;16737;50.932;6.780;2023-02-01T09:18:22;100652.00;;;10.20
9985;BMP180;16737;50.932;6.780;2023-02-01T09:20:49;100659.00;;;10.30
9985;BMP180;16737;50.932;6.780;2023-02-01T09:23:16;100656.00;;;10.30
9985;BMP180;16737;50.932;6.780;2023-02-01T09:25:43;100664.00;;;10.30
9985;BMP180;16737;50.932;6.780;2023-02-01T09:28:12;100647.00;;;10.40
9985;BMP180;16737;50.932;6.780;2023-02-01T09:30:39;100645.00;;;10.40
9985;BMP180;16737;50.932;6.780;2023-02-01T09:33:08;100642.00;;;10.40
9985;BMP180;16737;50.932;6.780;2023-02-01T09:35:37;100626.00;;;10.40
9985;BMP180;16737;50.932;6.780;2023-02-01T09:38:04;100659.00;;;10.40
9985;BMP180;16737;50.932;6.780;2023-02-01T09:40:34;100665.00;;;10.40
9985;BMP180;16737;50.932;6.780;2023-02-01T09:43:18;100652.00;;;10.40
9985;BMP180;16737;50.932;6.780;2023-02-01T09:45:58;100652.00;;;10.50
9985;BMP180;16737;50.932;6.780;2023-02-01T09:48:32;100651.00;;;10.50
9985;BMP180;16737;50.932;6.780;2023-02-01T09:51:11;100654.00;;;10.50
9985;BMP180;16737;50.932;6.780;2023-02-01T09:53:44;100653.00;;;10.60
9985;BMP180;16737;50.932;6.780;2023-02-01T09:56:18;100658.00;;;10.60
9985;BMP180;16737;50.932;6.780;2023-02-01T09:58:56;100653.00;;;10.60
9985;BMP180;16737;50.932;6.780;2023-02-01T10:01:26;100650.00;;;10.60
9985;BMP180;16737;50.932;6.780;2023-02-01T10:04:03;100651.00;;;10.60
9985;BMP180;16737;50.932;6.780;2023-02-01T10:06:46;100634.00;;;10.60
9985;BMP180;16737;50.932;6.780;2023-02-01T10:09:32;100650.00;;;10.70
9985;BMP180;16737;50.932;6.780;2023-02-01T10:12:44;100653.00;;;10.70
9985;BMP180;16737;50.932;6.780;2023-02-01T10:15:33;100646.00;;;10.70
9985;BMP180;16737;50.932;6.780;2023-02-01T10:18:29;100635.00;;;10.80
9985;BMP180;16737;50.932;6.780;2023-02-01T10:21:12;100625.00;;;10.80
9985;BMP180;16737;50.932;6.780;2023-02-01T10:24:22;100633.00;;;10.90
9985;BMP180;16737;50.932;6.780;2023-02-01T10:27:02;100630.00;;;11.00
9985;BMP180;16737;50.932;6.780;2023-02-01T10:29:37;100631.00;;;11.10
9985;BMP180;16737;50.932;6.780;2023-02-01T10:32:13;100633.00;;;11.10
9985;BMP180;16737;50.932;6.780;2023-02-01T10:34:42;100647.00;;;11.20
9985;BMP180;16737;50.932;6.780;2023-02-01T10:37:26;100615.00;;;11.30
9985;BMP180;16737;50.932;6.780;2023-02-01T10:39:59;100634.00;;;11.40
9985;BMP180;16737;50.932;6.780;2023-02-01T10:42:29;100634.00;;;11.40
9985;BMP180;16737;50.932;6.780;2023-02-01T10:45:01;100631.00;;;11.40
9985;BMP180;16737;50.932;6.780;2023-02-01T10:47:28;100628.00;;;11.50
9985;BMP180;16737;50.932;6.780;2023-02-01T10:50:11;100614.00;;;11.50
9985;BMP180;16737;50.932;6.780;2023-02-01T10:52:47;100626.00;;;11.60
9985;BMP180;16737;50.932;6.780;2023-02-01T10:55:40;100618.00;;;11.70
9985;BMP180;16737;50.932;6.780;2023-02-01T10:58:15;100626.00;;;11.80
9985;BMP180;16737;50.932;6.780;2023-02-01T11:00:48;100607.00;;;11.90
9985;BMP180;16737;50.932;6.780;2023-02-01T11:03:36;100634.00;;;11.90
9985;BMP180;16737;50.932;6.780;2023-02-01T11:06:13;100642.00;;;11.90
9985;BMP180;16737;50.932;6.780;2023-02-01T11:08:49;100620.00;;;11.90
9985;BMP180;16737;50.932;6.780;2023-02-01T11:11:19;100627.00;;;11.90
9985;BMP180;16737;50.932;6.780;2023-02-01T11:13:54;100627.00;;;11.90
9985;BMP180;16737;50.932;6.780;2023-02-01T11:16:29;100626.00;;;11.90
9985;BMP180;16737;50.932;6.780;2023-02-01T11:18:58;100618.00;;;11.80
9985;BMP180;16737;50.932;6.780;2023-02-01T11:21:26;100619.00;;;11.80
9985;BMP180;16737;50.932;6.780;2023-02-01T11:23:54;100606.00;;;11.70
9985;BMP180;16737;50.932;6.780;2023-02-01T11:26:26;100613.00;;;11.70
9985;BMP180;16737;50.932;6.780;2023-02-01T11:28:58;100620.00;;;11.70
9985;BMP180;16737;50.932;6.780;2023-02-01T11:31:28;100612.00;;;11.70
9985;BMP180;16737;50.932;6.780;2023-02-01T11:34:04;100602.00;;;11.70
9985;BMP180;16737;50.932;6.780;2023-02-01T11:36:35;100602.00;;;11.70
9985;BMP180;16737;50.932;6.780;2023-02-01T11:39:20;100589.00;;;11.60
9985;BMP180;16737;50.932;6.780;2023-02-01T11:42:01;100596.00;;;11.60
9985;BMP180;16737;50.932;6.780;2023-02-01T11:44:37;100607.00;;;11.60
9985;BMP180;16737;50.932;6.780;2023-02-01T11:47:24;100594.00;;;11.60
9985;BMP180;16737;50.932;6.780;2023-02-01T11:49:53;100579.00;;;11.60
9985;BMP180;16737;50.932;6.780;2023-02-01T11:52:42;100567.00;;;11.60
9985;BMP180;16737;50.932;6.780;2023-02-01T11:55:36;100574.00;;;11.60
9985;BMP180;16737;50.932;6.780;2023-02-01T11:58:36;100581.00;;;11.60
9985;BMP180;16737;50.932;6.780;2023-02-01T12:01:34;100563.00;;;11.60
9985;BMP180;16737;50.932;6.780;2023-02-01T12:04:54;100574.00;;;11.60
9985;BMP180;16737;50.932;6.780;2023-02-01T12:07:36;100572.00;;;11.60
9985;BMP180;16737;50.932;6.780;2023-02-01T12:10:24;100556.00;;;11.50
9985;BMP180;16737;50.932;6.780;2023-02-01T12:13:09;100557.00;;;11.50
9985;BMP180;16737;50.932;6.780;2023-02-01T12:15:56;100553.00;;;11.50
9985;BMP180;16737;50.932;6.780;2023-02-01T12:18:57;100540.00;;;11.50
9985;BMP180;16737;50.932;6.780;2023-02-01T12:25:03;100555.00;;;11.50
9985;BMP180;16737;50.932;6.780;2023-02-01T12:27:59;100551.00;;;11.60
9985;BMP180;16737;50.932;6.780;2023-02-01T12:31:12;100543.00;;;11.60
9985;BMP180;16737;50.932;6.780;2023-02-01T12:34:00;100527.00;;;11.60
9985;BMP180;16737;50.932;6.780;2023-02-01T12:36:42;100546.00;;;11.60
9985;BMP180;16737;50.932;6.780;2023-02-01T12:39:23;100554.00;;;11.60
9985;BMP180;16737;50.932;6.780;2023-02-01T12:41:58;100543.00;;;11.60
9985;BMP180;16737;50.932;6.780;2023-02-01T12:44:39;100550.00;;;11.70
9985;BMP180;16737;50.932;6.780;2023-02-01T12:47:20;100549.00;;;11.70
9985;BMP180;16737;50.932;6.780;2023-02-01T12:49:55;100550.00;;;11.70
9985;BMP180;16737;50.932;6.780;2023-02-01T12:52:35;100545.00;;;11.80
9985;BMP180;16737;50.932;6.780;2023-02-01T12:55:15;100540.00;;;11.80
9985;BMP180;16737;50.932;6.780;2023-02-01T12:57:50;100542.00;;;11.80
9985;BMP180;16737;50.932;6.780;2023-02-01T13:00:28;100535.00;;;11.80
9985;BMP180;16737;50.932;6.780;2023-02-01T13:03:11;100526.00;;;11.80
9985;BMP180;16737;50.932;6.780;2023-02-01T13:05:47;100516.00;;;11.80
9985;BMP180;16737;50.932;6.780;2023-02-01T13:08:22;100476.00;;;11.80
9985;BMP180;16737;50.932;6.780;2023-02-01T13:11:05;100511.00;;;11.80
9985;BMP180;16737;50.932;6.780;2023-02-01T13:13:48;100507.00;;;11.80
9985;BMP180;16737;50.932;6.780;2023-02-01T13:16:23;100516.00;;;11.80
9985;BMP180;16737;50.932;6.780;2023-02-01T13:19:13;100499.00;;;11.80
9985;BMP180;16737;50.932;6.780;2023-02-01T13:21:48;100499.00;;;11.80
9985;BMP180;16737;50.932;6.780;2023-02-01T13:24:31;100500.00;;;11.80
9985;BMP180;16737;50.932;6.780;2023-02-01T13:27:00;100480.00;;;11.80
9985;BMP180;16737;50.932;6.780;2023-02-01T13:29:29;100491.00;;;11.80
9985;BMP180;16737;50.932;6.780;2023-02-01T13:32:22;100489.00;;;11.90
9985;BMP180;16737;50.932;6.780;2023-02-01T13:35:21;100498.00;;;11.80
9985;BMP180;16737;50.932;6.780;2023-02-01T13:38:26;100494.00;;;11.80
9985;BMP180;16737;50.932;6.780;2023-02-01T13:41:19;100484.00;;;11.80
9985;BMP180;16737;50.932;6.780;2023-02-01T13:43:55;100490.00;;;11.80
9985;BMP180;16737;50.932;6.780;2023-02-01T13:46:23;100493.00;;;11.80
9985;BMP180;16737;50.932;6.780;2023-02-01T13:48:55;100484.00;;;11.80
9985;BMP180;16737;50.932;6.780;2023-02-01T13:51:36;100495.00;;;11.70
9985;BMP180;16737;50.932;6.780;2023-02-01T13:54:05;100487.00;;;11.70
9985;BMP180;16737;50.932;6.780;2023-02-01T13:56:41;100476.00;;;11.70
9985;BMP180;16737;50.932;6.780;2023-02-01T13:59:50;100488.00;;;11.60
9985;BMP180;16737;50.932;6.780;2023-02-01T14:02:50;100484.00;;;11.70
9985;BMP180;16737;50.932;6.780;2023-02-01T14:06:18;100478.00;;;11.70
9985;BMP180;16737;50.932;6.780;2023-02-01T14:09:30;100456.00;;;11.60
9985;BMP180;16737;50.932;6.780;2023-02-01T14:12:42;100476.00;;;11.70
9985;BMP180;16737;50.932;6.780;2023-02-01T14:15:24;100482.00;;;11.70
9985;BMP180;16737;50.932;6.780;2023-02-01T14:17:51;100484.00;;;11.70
9985;BMP180;16737;50.932;6.780;2023-02-01T14:20:47;100494.00;;;11.70
9985;BMP180;16737;50.932;6.780;2023-02-01T14:23:29;100493.00;;;11.70
9985;BMP180;16737;50.932;6.780;2023-02-01T14:26:18;100499.00;;;11.80
9985;BMP180;16737;50.932;6.780;2023-02-01T14:28:53;100480.00;;;11.80
9985;BMP180;16737;50.932;6.780;2023-02-01T14:31:52;100486.00;;;11.80
9985;BMP180;16737;50.932;6.780;2023-02-01T14:34:29;100504.00;;;11.90
9985;BMP180;16737;50.932;6.780;2023-02-01T14:37:00;100487.00;;;11.90
9985;BMP180;16737;50.932;6.780;2023-02-01T14:39:37;100500.00;;;11.90
9985;BMP180;16737;50.932;6.780;2023-02-01T14:42:22;100501.00;;;11.90
9985;BMP180;16737;50.932;6.780;2023-02-01T14:44:52;100504.00;;;11.90
9985;BMP180;16737;50.932;6.780;2023-02-01T14:47:34;100516.00;;;11.90
9985;BMP180;16737;50.932;6.780;2023-02-01T14:50:30;100511.00;;;12.00
9985;BMP180;16737;50.932;6.780;2023-02-01T14:53:17;100505.00;;;12.00
9985;BMP180;16737;50.932;6.780;2023-02-01T14:55:53;100504.00;;;12.00